A- A+ FrançaisEnglishEspañol中国

Services sur Internet Soldes sur Internet Des idées de cadeaux Météo Météo aéro

La météo à : Autours de vous Carcassone-SalvazaTarbes-Lourdes-PyrénéesNimes-Courbessac Toulouse-Blagnac

La météo aéronautique pour les pilotes, la préparation du vol avec les METAR (METeorological Aerodrome Report, message d'observation des conditions météorologiques pour l'aviation) et Les TAF (Terminal Aerodrome Forecast : message de prévision à court terme des conditions météorologiques pour l'aviation). Et les autres ressources comme les VAC (Visual Approch Chart) et les NOTAM (Notice To Airman) pour préprer les vols.

Aéroport St Catharines (Canada) / OACI CYSN/ IATA YCM

L'altitude de l'aéroport St Catharines est de 98 m = 322 ft. Il est situé à proximité de St Catharines (Canada). La météo générale à 5 jours est disponible pour Port Weller situé à 5.7 km.

METAR de l'aéroport St Catharines - CYSN

CYSN 261900Z 08009KT 060V120 15SM FEW032 SCT100 OVC230 12/05 A3014 RMK SC1AC2CS5 HALO SLP210

Décodage du METAR de l'aéroport St Catharines (CA)

METAR émis par CYSN le samedi 26 octobre 2019 à 19:00 heure TU. Attention ce METAR est obsolète car il a été émis il y a 2 heure et 32 minutes.

La visibilité est de 24.1 km = 15 sm.

La température est de 12°C = 54 °F et le point rosée est de 5°C = 41 °F . Ce qui correspond à 62% d'humidité relative.

Le QNH est de 1021 hPa = 30.15 inHg

Vent de 9 kt = 17 km/h, orienté à 80°.

Nuages : Quelques nuages à 3200 ft = 980 mètres. Nuages épars à 10000 ft = 3050 mètres. Couverture nuageuse soudée à 23000 ft = 7010 mètres.

RMK SC1AC2CS5 HALO SLP210

TAF de l'aéroport St Catharines - CYSN

CYSN 291239Z 2913/3001 07008KT P6SM BKN030 TEMPO 2913/2916 SCT030 FM291600 06012KT P6SM FEW030 SCT240 FM292100 06012KT P6SM BKN200 FM300000 08008KT P6SM BKN150 RMK NXT FCST BY 292000Z

CYSN 291239Z 2913/3001 07008KT P6SM couverture nuageuse fragmentée à 030 temporairement 2913/2916 nuages épars à 030 FM291600 06012KT P6SM quelques nuages à 030 nuages épars à 240 FM292100 06012KT P6SM couverture nuageuse fragmentée à 200 FM300000 08008KT P6SM couverture nuageuse fragmentée à 150 remarques NXT trombe ST BY 292000Z

Aéroport à proximité de St Catharines

Météo générale à 5 jours à Port Weller (5.7 km)Aéroport Niagara Falls (21 km)Aéroport Buffalo Niagara Intl (45 km)Aéroport Toronto City Centre (52 km)Aéroport Burlington Airpark (62 km)Aéroport Hamilton (62 km)Aéroport Toronto Lester (65 km)

Vue aérienne de l'aéroport St Catharines

NOTAM de l'aéroport St Catharines

Les NOTAM sont fournis sans aucune garantie de leur actualité. Le pilote est le seul responsable de la vérification de sa validité avant de l'utiliser opérationnellement pour préparer un vol ou l'utiliser lors de sa navigation.

Pas de NOTAM

Sources des données